sensor_id;sensor_type;location;lat;lon;timestamp;temperature;humidity
4411;DHT22;2218;51.408;7.208;2023-04-01T00:00:34;19.60;43.60
4411;DHT22;2218;51.408;7.208;2023-04-01T00:03:01;19.60;43.60
4411;DHT22;2218;51.408;7.208;2023-04-01T00:05:29;19.60;43.60
4411;DHT22;2218;51.408;7.208;2023-04-01T00:07:56;19.60;43.60
4411;DHT22;2218;51.408;7.208;2023-04-01T00:10:23;19.60;43.50
4411;DHT22;2218;51.408;7.208;2023-04-01T00:12:50;19.50;43.50
4411;DHT22;2218;51.408;7.208;2023-04-01T00:15:17;19.50;43.50
4411;DHT22;2218;51.408;7.208;2023-04-01T00:17:44;19.60;43.60
4411;DHT22;2218;51.408;7.208;2023-04-01T00:20:12;19.60;43.60
4411;DHT22;2218;51.408;7.208;2023-04-01T00:22:41;19.50;43.50
4411;DHT22;2218;51.408;7.208;2023-04-01T00:25:09;19.60;43.70
4411;DHT22;2218;51.408;7.208;2023-04-01T00:27:36;19.60;43.60
4411;DHT22;2218;51.408;7.208;2023-04-01T00:30:04;19.50;43.60
4411;DHT22;2218;51.408;7.208;2023-04-01T00:32:32;19.50;43.60
4411;DHT22;2218;51.408;7.208;2023-04-01T00:34:59;19.50;43.60
4411;DHT22;2218;51.408;7.208;2023-04-01T00:37:27;19.50;43.60
4411;DHT22;2218;51.408;7.208;2023-04-01T00:39:56;19.50;43.60
4411;DHT22;2218;51.408;7.208;2023-04-01T00:42:23;19.50;43.60
4411;DHT22;2218;51.408;7.208;2023-04-01T00:44:53;19.50;43.60
4411;DHT22;2218;51.408;7.208;2023-04-01T00:47:21;19.50;43.60
4411;DHT22;2218;51.408;7.208;2023-04-01T00:49:52;19.50;43.60
4411;DHT22;2218;51.408;7.208;2023-04-01T00:52:23;19.50;43.60
4411;DHT22;2218;51.408;7.208;2023-04-01T00:54:56;19.50;43.60
4411;DHT22;2218;51.408;7.208;2023-04-01T00:57:29;19.50;43.60
4411;DHT22;2218;51.408;7.208;2023-04-01T01:00:05;19.50;43.60
4411;DHT22;2218;51.408;7.208;2023-04-01T01:02:37;19.50;43.60
4411;DHT22;2218;51.408;7.208;2023-04-01T01:05:05;19.50;43.60
4411;DHT22;2218;51.408;7.208;2023-04-01T01:07:37;19.50;43.60
4411;DHT22;2218;51.408;7.208;2023-04-01T01:10:18;19.50;43.70
4411;DHT22;2218;51.408;7.208;2023-04-01T01:12:58;19.50;43.70
4411;DHT22;2218;51.408;7.208;2023-04-01T01:15:37;19.50;43.70
4411;DHT22;2218;51.408;7.208;2023-04-01T01:18:16;19.50;43.70
4411;DHT22;2218;51.408;7.208;2023-04-01T01:24:28;19.50;44.20
4411;DHT22;2218;51.408;7.208;2023-04-01T01:27:08;19.40;43.70
4411;DHT22;2218;51.408;7.208;2023-04-01T01:30:04;19.50;44.20
4411;DHT22;2218;51.408;7.208;2023-04-01T01:32:55;19.40;43.70
4411;DHT22;2218;51.408;7.208;2023-04-01T01:35:49;19.40;43.70
4411;DHT22;2218;51.408;7.208;2023-04-01T01:38:23;19.40;43.70
4411;DHT22;2218;51.408;7.208;2023-04-01T01:41:00;19.40;43.70
4411;DHT22;2218;51.408;7.208;2023-04-01T01:43:32;19.40;43.70
4411;DHT22;2218;51.408;7.208;2023-04-01T01:46:06;19.40;43.70
4411;DHT22;2218;51.408;7.208;2023-04-01T01:48:36;19.40;43.70
4411;DHT22;2218;51.408;7.208;2023-04-01T01:51:06;19.40;43.70
4411;DHT22;2218;51.408;7.208;2023-04-01T01:53:34;19.40;43.70
4411;DHT22;2218;51.408;7.208;2023-04-01T01:56:02;19.40;43.70
4411;DHT22;2218;51.408;7.208;2023-04-01T01:58:36;19.40;43.80
4411;DHT22;2218;51.408;7.208;2023-04-01T02:01:10;19.40;43.70
4411;DHT22;2218;51.408;7.208;2023-04-01T02:03:41;19.40;43.80
4411;DHT22;2218;51.408;7.208;2023-04-01T02:06:16;19.40;43.80
4411;DHT22;2218;51.408;7.208;2023-04-01T02:08:48;19.40;43.80
4411;DHT22;2218;51.408;7.208;2023-04-01T02:11:21;19.40;43.80
4411;DHT22;2218;51.408;7.208;2023-04-01T02:13:54;19.40;43.70
4411;DHT22;2218;51.408;7.208;2023-04-01T02:16:28;19.40;43.70
4411;DHT22;2218;51.408;7.208;2023-04-01T02:19:02;19.40;43.70
4411;DHT22;2218;51.408;7.208;2023-04-01T02:21:35;19.40;43.70
4411;DHT22;2218;51.408;7.208;2023-04-01T02:24:06;19.40;43.70
4411;DHT22;2218;51.408;7.208;2023-04-01T02:26:36;19.40;43.70
4411;DHT22;2218;51.408;7.208;2023-04-01T02:29:05;19.40;43.70
4411;DHT22;2218;51.408;7.208;2023-04-01T02:31:35;19.40;43.70
4411;DHT22;2218;51.408;7.208;2023-04-01T02:34:03;19.40;43.70
4411;DHT22;2218;51.408;7.208;2023-04-01T02:36:31;19.50;43.80
4411;DHT22;2218;51.408;7.208;2023-04-01T02:39:00;19.50;43.80
4411;DHT22;2218;51.408;7.208;2023-04-01T02:41:30;19.50;43.80
4411;DHT22;2218;51.408;7.208;2023-04-01T02:43:57;19.50;43.80
4411;DHT22;2218;51.408;7.208;2023-04-01T02:46:24;19.50;43.80
4411;DHT22;2218;51.408;7.208;2023-04-01T02:48:51;19.50;43.80
4411;DHT22;2218;51.408;7.208;2023-04-01T02:51:19;19.50;43.80
4411;DHT22;2218;51.408;7.208;2023-04-01T02:53:46;19.50;43.70
4411;DHT22;2218;51.408;7.208;2023-04-01T02:56:14;19.50;43.80
4411;DHT22;2218;51.408;7.208;2023-04-01T02:58:41;19.50;43.70
4411;DHT22;2218;51.408;7.208;2023-04-01T03:01:08;19.50;43.70
4411;DHT22;2218;51.408;7.208;2023-04-01T03:03:35;19.50;43.70
4411;DHT22;2218;51.408;7.208;2023-04-01T03:06:05;19.50;43.80
4411;DHT22;2218;51.408;7.208;2023-04-01T03:08:32;19.50;43.80
4411;DHT22;2218;51.408;7.208;2023-04-01T03:10:59;19.50;43.80
4411;DHT22;2218;51.408;7.208;2023-04-01T03:13:27;19.50;43.80
4411;DHT22;2218;51.408;7.208;2023-04-01T03:15:54;19.50;43.80
4411;DHT22;2218;51.408;7.208;2023-04-01T03:18:22;19.50;43.80
4411;DHT22;2218;51.408;7.208;2023-04-01T03:20:49;19.50;43.80
4411;DHT22;2218;51.408;7.208;2023-04-01T03:23:16;19.50;43.70
4411;DHT22;2218;51.408;7.208;2023-04-01T03:25:45;19.50;43.80
4411;DHT22;2218;51.408;7.208;2023-04-01T03:28:12;19.50;43.80
4411;DHT22;2218;51.408;7.208;2023-04-01T03:30:40;19.50;43.80
4411;DHT22;2218;51.408;7.208;2023-04-01T03:33:08;19.50;43.80
4411;DHT22;2218;51.408;7.208;2023-04-01T03:35:35;19.50;43.80
4411;DHT22;2218;51.408;7.208;2023-04-01T03:38:02;19.50;43.80
4411;DHT22;2218;51.408;7.208;2023-04-01T03:40:29;19.50;43.80
4411;DHT22;2218;51.408;7.208;2023-04-01T03:42:58;19.50;43.70
4411;DHT22;2218;51.408;7.208;2023-04-01T03:45:25;19.50;43.80
4411;DHT22;2218;51.408;7.208;2023-04-01T03:47:53;19.50;43.80
4411;DHT22;2218;51.408;7.208;2023-04-01T03:50:20;19.50;43.70
4411;DHT22;2218;51.408;7.208;2023-04-01T03:52:48;19.50;43.80
4411;DHT22;2218;51.408;7.208;2023-04-01T03:55:15;19.50;43.80
4411;DHT22;2218;51.408;7.208;2023-04-01T03:57:43;19.50;43.80
4411;DHT22;2218;51.408;7.208;2023-04-01T04:00:17;19.50;43.70
4411;DHT22;2218;51.408;7.208;2023-04-01T04:02:49;19.50;43.80
4411;DHT22;2218;51.408;7.208;2023-04-01T04:05:22;19.50;43.80
4411;DHT22;2218;51.408;7.208;2023-04-01T04:07:51;19.50;43.80
4411;DHT22;2218;51.408;7.208;2023-04-01T04:10:19;19.50;43.80
4411;DHT22;2218;51.408;7.208;2023-04-01T04:12:49;19.50;43.80
4411;DHT22;2218;51.408;7.208;2023-04-01T04:15:16;19.50;43.80
4411;DHT22;2218;51.408;7.208;2023-04-01T04:17:44;19.50;43.80
4411;DHT22;2218;51.408;7.208;2023-04-01T04:20:13;19.50;43.80
4411;DHT22;2218;51.408;7.208;2023-04-01T04:22:42;19.50;43.70
4411;DHT22;2218;51.408;7.208;2023-04-01T04:25:09;19.50;43.80
4411;DHT22;2218;51.408;7.208;2023-04-01T04:27:37;19.50;43.80
4411;DHT22;2218;51.408;7.208;2023-04-01T04:30:10;19.50;43.90
4411;DHT22;2218;51.408;7.208;2023-04-01T04:32:37;19.50;43.80
4411;DHT22;2218;51.408;7.208;2023-04-01T04:35:05;19.50;43.90
4411;DHT22;2218;51.408;7.208;2023-04-01T04:37:33;19.50;43.80
4411;DHT22;2218;51.408;7.208;2023-04-01T04:40:01;19.50;43.90
4411;DHT22;2218;51.408;7.208;2023-04-01T04:42:30;19.50;43.80
4411;DHT22;2218;51.408;7.208;2023-04-01T04:45:06;19.50;43.90
4411;DHT22;2218;51.408;7.208;2023-04-01T04:47:34;19.50;43.80
4411;DHT22;2218;51.408;7.208;2023-04-01T04:50:01;19.50;43.80
4411;DHT22;2218;51.408;7.208;2023-04-01T04:52:28;19.50;43.90
4411;DHT22;2218;51.408;7.208;2023-04-01T04:54:55;19.50;43.90
4411;DHT22;2218;51.408;7.208;2023-04-01T04:57:23;19.50;43.90
4411;DHT22;2218;51.408;7.208;2023-04-01T04:59:54;19.50;43.90
4411;DHT22;2218;51.408;7.208;2023-04-01T05:02:53;19.50;43.90
4411;DHT22;2218;51.408;7.208;2023-04-01T05:05:20;19.50;43.90
4411;DHT22;2218;51.408;7.208;2023-04-01T05:07:47;19.50;43.80
4411;DHT22;2218;51.408;7.208;2023-04-01T05:10:15;19.50;43.90
4411;DHT22;2218;51.408;7.208;2023-04-01T05:12:43;19.50;43.90
4411;DHT22;2218;51.408;7.208;2023-04-01T05:15:14;19.50;43.80
4411;DHT22;2218;51.408;7.208;2023-04-01T05:17:42;19.50;43.90
4411;DHT22;2218;51.408;7.208;2023-04-01T05:20:11;19.50;43.90
4411;DHT22;2218;51.408;7.208;2023-04-01T05:22:39;19.50;43.90
4411;DHT22;2218;51.408;7.208;2023-04-01T05:25:06;19.50;43.90
4411;DHT22;2218;51.408;7.208;2023-04-01T05:27:33;19.50;43.90
4411;DHT22;2218;51.408;7.208;2023-04-01T05:30:03;19.50;43.90
4411;DHT22;2218;51.408;7.208;2023-04-01T05:32:41;19.60;43.90
4411;DHT22;2218;51.408;7.208;2023-04-01T05:35:08;19.50;43.80
4411;DHT22;2218;51.408;7.208;2023-04-01T05:37:36;19.50;43.90
4411;DHT22;2218;51.408;7.208;2023-04-01T05:40:05;19.50;43.90
4411;DHT22;2218;51.408;7.208;2023-04-01T05:42:35;19.50;44.40
4411;DHT22;2218;51.408;7.208;2023-04-01T05:45:04;19.60;44.00
4411;DHT22;2218;51.408;7.208;2023-04-01T05:47:51;19.60;44.00
4411;DHT22;2218;51.408;7.208;2023-04-01T05:50:18;19.60;44.00
4411;DHT22;2218;51.408;7.208;2023-04-01T05:52:46;19.60;43.90
4411;DHT22;2218;51.408;7.208;2023-04-01T05:55:13;19.60;44.00
4411;DHT22;2218;51.408;7.208;2023-04-01T05:57:40;19.50;43.80
4411;DHT22;2218;51.408;7.208;2023-04-01T06:00:10;19.60;43.90
4411;DHT22;2218;51.408;7.208;2023-04-01T06:02:38;19.50;43.90
4411;DHT22;2218;51.408;7.208;2023-04-01T06:05:14;19.60;44.00
4411;DHT22;2218;51.408;7.208;2023-04-01T06:07:45;19.60;44.00
4411;DHT22;2218;51.408;7.208;2023-04-01T06:10:14;19.60;44.00
4411;DHT22;2218;51.408;7.208;2023-04-01T06:12:52;19.60;44.00
4411;DHT22;2218;51.408;7.208;2023-04-01T06:15:36;19.50;43.90
4411;DHT22;2218;51.408;7.208;2023-04-01T06:18:32;19.60;44.00
4411;DHT22;2218;51.408;7.208;2023-04-01T06:21:45;19.60;44.00
4411;DHT22;2218;51.408;7.208;2023-04-01T06:24:51;19.60;44.10
4411;DHT22;2218;51.408;7.208;2023-04-01T06:27:49;19.50;43.90
4411;DHT22;2218;51.408;7.208;2023-04-01T06:30:33;19.60;44.00
4411;DHT22;2218;51.408;7.208;2023-04-01T06:33:23;19.60;44.00
4411;DHT22;2218;51.408;7.208;2023-04-01T06:36:15;19.60;44.00
4411;DHT22;2218;51.408;7.208;2023-04-01T06:39:05;19.60;44.00
4411;DHT22;2218;51.408;7.208;2023-04-01T06:45:16;19.60;44.00
4411;DHT22;2218;51.408;7.208;2023-04-01T06:48:28;19.60;44.10
4411;DHT22;2218;51.408;7.208;2023-04-01T06:51:42;19.60;44.00
4411;DHT22;2218;51.408;7.208;2023-04-01T06:54:42;19.60;44.50
4411;DHT22;2218;51.408;7.208;2023-04-01T06:57:34;19.50;43.90
4411;DHT22;2218;51.408;7.208;2023-04-01T07:00:13;19.50;43.90
4411;DHT22;2218;51.408;7.208;2023-04-01T07:02:47;19.60;44.00
4411;DHT22;2218;51.408;7.208;2023-04-01T07:05:20;19.60;44.10
4411;DHT22;2218;51.408;7.208;2023-04-01T07:07:52;19.60;44.00
4411;DHT22;2218;51.408;7.208;2023-04-01T07:10:34;19.60;44.00
4411;DHT22;2218;51.408;7.208;2023-04-01T07:13:31;19.60;44.10
4411;DHT22;2218;51.408;7.208;2023-04-01T07:16:17;19.60;44.10
4411;DHT22;2218;51.408;7.208;2023-04-01T07:18:50;19.60;44.10
4411;DHT22;2218;51.408;7.208;2023-04-01T07:21:29;19.60;44.00
4411;DHT22;2218;51.408;7.208;2023-04-01T07:24:05;19.60;44.00
4411;DHT22;2218;51.408;7.208;2023-04-01T07:26:49;19.60;44.10
4411;DHT22;2218;51.408;7.208;2023-04-01T07:29:23;19.60;44.10
4411;DHT22;2218;51.408;7.208;2023-04-01T07:32:16;19.60;44.10
4411;DHT22;2218;51.408;7.208;2023-04-01T07:35:02;19.60;44.10
4411;DHT22;2218;51.408;7.208;2023-04-01T07:37:45;19.60;44.10
4411;DHT22;2218;51.408;7.208;2023-04-01T07:40:26;19.50;44.00
4411;DHT22;2218;51.408;7.208;2023-04-01T07:43:17;19.60;44.10
4411;DHT22;2218;51.408;7.208;2023-04-01T07:46:41;19.60;44.10
4411;DHT22;2218;51.408;7.208;2023-04-01T07:49:21;19.60;44.10
4411;DHT22;2218;51.408;7.208;2023-04-01T07:51:59;19.60;44.10
4411;DHT22;2218;51.408;7.208;2023-04-01T07:54:39;19.60;44.10
4411;DHT22;2218;51.408;7.208;2023-04-01T07:57:13;19.60;44.10
4411;DHT22;2218;51.408;7.208;2023-04-01T07:59:57;19.60;44.10
4411;DHT22;2218;51.408;7.208;2023-04-01T08:03:11;19.60;44.10
4411;DHT22;2218;51.408;7.208;2023-04-01T08:05:54;19.60;44.20
4411;DHT22;2218;51.408;7.208;2023-04-01T08:08:34;19.60;44.20
4411;DHT22;2218;51.408;7.208;2023-04-01T08:11:46;19.60;44.10
4411;DHT22;2218;51.408;7.208;2023-04-01T08:14:52;19.60;44.20
4411;DHT22;2218;51.408;7.208;2023-04-01T08:17:37;19.60;44.10
4411;DHT22;2218;51.408;7.208;2023-04-01T08:20:28;19.60;44.20
4411;DHT22;2218;51.408;7.208;2023-04-01T08:23:07;19.60;44.10
4411;DHT22;2218;51.408;7.208;2023-04-01T08:25:46;19.60;44.10
4411;DHT22;2218;51.408;7.208;2023-04-01T08:28:24;19.60;44.10
4411;DHT22;2218;51.408;7.208;2023-04-01T08:31:02;19.60;44.20
4411;DHT22;2218;51.408;7.208;2023-04-01T08:33:33;19.60;44.20
4411;DHT22;2218;51.408;7.208;2023-04-01T08:36:07;19.50;44.10
4411;DHT22;2218;51.408;7.208;2023-04-01T08:38:40;19.60;44.20
4411;DHT22;2218;51.408;7.208;2023-04-01T08:41:30;19.60;44.30
4411;DHT22;2218;51.408;7.208;2023-04-01T08:45:04;19.60;44.20
4411;DHT22;2218;51.408;7.208;2023-04-01T08:48:01;19.60;44.30
4411;DHT22;2218;51.408;7.208;2023-04-01T08:57:44;19.50;44.20
4411;DHT22;2218;51.408;7.208;2023-04-01T09:00:47;19.50;44.20
4411;DHT22;2218;51.408;7.208;2023-04-01T09:03:39;19.60;44.30
4411;DHT22;2218;51.408;7.208;2023-04-01T09:06:29;19.50;44.20
4411;DHT22;2218;51.408;7.208;2023-04-01T09:12:50;19.60;44.30
4411;DHT22;2218;51.408;7.208;2023-04-01T09:15:56;19.60;44.30
4411;DHT22;2218;51.408;7.208;2023-04-01T09:18:53;19.60;44.30
4411;DHT22;2218;51.408;7.208;2023-04-01T09:21:53;19.60;44.40
4411;DHT22;2218;51.408;7.208;2023-04-01T09:25:01;19.60;44.40
4411;DHT22;2218;51.408;7.208;2023-04-01T09:27:44;19.60;44.40
4411;DHT22;2218;51.408;7.208;2023-04-01T09:30:37;19.60;44.40
4411;DHT22;2218;51.408;7.208;2023-04-01T09:37:15;19.60;44.40
4411;DHT22;2218;51.408;7.208;2023-04-01T09:39:56;19.60;44.40
4411;DHT22;2218;51.408;7.208;2023-04-01T09:42:45;19.50;44.30
4411;DHT22;2218;51.408;7.208;2023-04-01T09:45:36;19.60;44.40
4411;DHT22;2218;51.408;7.208;2023-04-01T09:48:19;19.60;44.40
4411;DHT22;2218;51.408;7.208;2023-04-01T09:51:22;19.60;44.40
4411;DHT22;2218;51.408;7.208;2023-04-01T09:54:08;19.50;44.30
4411;DHT22;2218;51.408;7.208;2023-04-01T09:57:09;19.60;44.40
4411;DHT22;2218;51.408;7.208;2023-04-01T10:00:32;19.50;44.30
4411;DHT22;2218;51.408;7.208;2023-04-01T10:10:23;19.60;44.40
4411;DHT22;2218;51.408;7.208;2023-04-01T10:20:12;19.60;44.50
4411;DHT22;2218;51.408;7.208;2023-04-01T10:23:06;19.60;44.50
4411;DHT22;2218;51.408;7.208;2023-04-01T10:26:23;19.60;44.50
4411;DHT22;2218;51.408;7.208;2023-04-01T10:29:37;19.60;44.50
4411;DHT22;2218;51.408;7.208;2023-04-01T10:32:55;19.50;44.40
4411;DHT22;2218;51.408;7.208;2023-04-01T10:36:21;19.60;44.50
4411;DHT22;2218;51.408;7.208;2023-04-01T10:46:48;19.60;44.50
4411;DHT22;2218;51.408;7.208;2023-04-01T10:49:44;19.60;44.60
4411;DHT22;2218;51.408;7.208;2023-04-01T10:52:53;19.50;44.50
4411;DHT22;2218;51.408;7.208;2023-04-01T10:56:40;19.60;44.60
4411;DHT22;2218;51.408;7.208;2023-04-01T10:59:50;19.60;44.60
4411;DHT22;2218;51.408;7.208;2023-04-01T11:03:16;19.60;44.60
4411;DHT22;2218;51.408;7.208;2023-04-01T11:06:56;19.60;44.70
4411;DHT22;2218;51.408;7.208;2023-04-01T11:13:33;19.60;44.70
4411;DHT22;2218;51.408;7.208;2023-04-01T11:16:53;19.60;44.60
4411;DHT22;2218;51.408;7.208;2023-04-01T11:20:13;19.60;44.70
4411;DHT22;2218;51.408;7.208;2023-04-01T11:23:08;19.60;44.70
4411;DHT22;2218;51.408;7.208;2023-04-01T11:26:00;19.60;44.70
4411;DHT22;2218;51.408;7.208;2023-04-01T11:32:29;19.60;44.70
4411;DHT22;2218;51.408;7.208;2023-04-01T11:35:37;19.60;44.80
4411;DHT22;2218;51.408;7.208;2023-04-01T11:38:26;19.60;44.80
4411;DHT22;2218;51.408;7.208;2023-04-01T11:41:31;19.50;44.70
4411;DHT22;2218;51.408;7.208;2023-04-01T11:44:31;19.60;44.80
4411;DHT22;2218;51.408;7.208;2023-04-01T11:47:35;19.50;44.70
4411;DHT22;2218;51.408;7.208;2023-04-01T11:50:29;19.60;44.80
4411;DHT22;2218;51.408;7.208;2023-04-01T11:53:22;19.60;44.80
4411;DHT22;2218;51.408;7.208;2023-04-01T11:56:19;19.60;44.80
4411;DHT22;2218;51.408;7.208;2023-04-01T11:59:29;19.60;44.80
4411;DHT22;2218;51.408;7.208;2023-04-01T12:02:23;19.60;44.80
4411;DHT22;2218;51.408;7.208;2023-04-01T12:05:07;19.60;44.90
4411;DHT22;2218;51.408;7.208;2023-04-01T12:11:03;19.60;44.80
4411;DHT22;2218;51.408;7.208;2023-04-01T12:13:48;19.60;44.80
4411;DHT22;2218;51.408;7.208;2023-04-01T12:16:34;19.60;44.90
4411;DHT22;2218;51.408;7.208;2023-04-01T12:19:19;19.50;44.80
4411;DHT22;2218;51.408;7.208;2023-04-01T12:22:10;19.60;44.90
4411;DHT22;2218;51.408;7.208;2023-04-01T12:24:54;19.60;44.90
4411;DHT22;2218;51.408;7.208;2023-04-01T12:27:39;19.60;44.90
4411;DHT22;2218;51.408;7.208;2023-04-01T12:30:25;19.50;44.90
4411;DHT22;2218;51.408;7.208;2023-04-01T12:33:32;19.60;44.90
4411;DHT22;2218;51.408;7.208;2023-04-01T12:36:20;19.60;44.90
4411;DHT22;2218;51.408;7.208;2023-04-01T12:42:19;19.60;44.90
4411;DHT22;2218;51.408;7.208;2023-04-01T12:45:11;19.60;45.00
4411;DHT22;2218;51.408;7.208;2023-04-01T12:48:06;19.50;44.90
4411;DHT22;2218;51.408;7.208;2023-04-01T12:51:21;19.60;44.90
4411;DHT22;2218;51.408;7.208;2023-04-01T12:54:24;19.60;45.00
4411;DHT22;2218;51.408;7.208;2023-04-01T12:57:27;19.60;45.00
4411;DHT22;2218;51.408;7.208;2023-04-01T13:00:44;19.60;45.00
4411;DHT22;2218;51.408;7.208;2023-04-01T13:03:37;19.60;44.90
4411;DHT22;2218;51.408;7.208;2023-04-01T13:06:33;19.60;45.00
4411;DHT22;2218;51.408;7.208;2023-04-01T13:09:19;19.60;45.00
4411;DHT22;2218;51.408;7.208;2023-04-01T13:12:28;19.60;45.00
4411;DHT22;2218;51.408;7.208;2023-04-01T13:15:23;19.60;45.00
4411;DHT22;2218;51.408;7.208;2023-04-01T13:18:02;19.60;45.00
4411;DHT22;2218;51.408;7.208;2023-04-01T13:20:44;19.60;45.00
4411;DHT22;2218;51.408;7.208;2023-04-01T13:23:29;19.60;45.10
4411;DHT22;2218;51.408;7.208;2023-04-01T13:26:09;19.60;45.00
4411;DHT22;2218;51.408;7.208;2023-04-01T13:28:49;19.60;45.10
4411;DHT22;2218;51.408;7.208;2023-04-01T13:34:24;19.60;45.10
4411;DHT22;2218;51.408;7.208;2023-04-01T13:37:17;19.60;45.10
4411;DHT22;2218;51.408;7.208;2023-04-01T13:40:02;19.60;45.10
4411;DHT22;2218;51.408;7.208;2023-04-01T13:42:50;19.60;45.10
4411;DHT22;2218;51.408;7.208;2023-04-01T13:45:25;19.60;45.70
4411;DHT22;2218;51.408;7.208;2023-04-01T13:48:18;19.60;45.10
4411;DHT22;2218;51.408;7.208;2023-04-01T13:51:30;19.60;45.10
4411;DHT22;2218;51.408;7.208;2023-04-01T13:54:51;19.60;45.10
4411;DHT22;2218;51.408;7.208;2023-04-01T13:57:43;19.60;45.10
4411;DHT22;2218;51.408;7.208;2023-04-01T14:00:35;19.60;45.20
4411;DHT22;2218;51.408;7.208;2023-04-01T14:03:27;19.60;45.20
4411;DHT22;2218;51.408;7.208;2023-04-01T14:06:18;19.50;45.10
4411;DHT22;2218;51.408;7.208;2023-04-01T14:09:04;19.60;45.20
4411;DHT22;2218;51.408;7.208;2023-04-01T14:12:03;19.60;45.20
4411;DHT22;2218;51.408;7.208;2023-04-01T14:14:42;19.60;45.20
4411;DHT22;2218;51.408;7.208;2023-04-01T14:17:35;19.50;45.20
4411;DHT22;2218;51.408;7.208;2023-04-01T14:20:23;19.60;45.20
4411;DHT22;2218;51.408;7.208;2023-04-01T14:23:07;19.60;45.30
4411;DHT22;2218;51.408;7.208;2023-04-01T14:26:07;19.60;45.30
4411;DHT22;2218;51.408;7.208;2023-04-01T14:28:49;19.60;45.30
4411;DHT22;2218;51.408;7.208;2023-04-01T14:31:44;19.60;45.30
4411;DHT22;2218;51.408;7.208;2023-04-01T14:34:30;19.50;45.20
4411;DHT22;2218;51.408;7.208;2023-04-01T14:37:25;19.60;45.30
4411;DHT22;2218;51.408;7.208;2023-04-01T14:40:27;19.60;45.30
4411;DHT22;2218;51.408;7.208;2023-04-01T14:43:20;19.60;45.30
4411;DHT22;2218;51.408;7.208;2023-04-01T14:49:34;19.60;45.30
4411;DHT22;2218;51.408;7.208;2023-04-01T14:52:09;19.60;45.30
4411;DHT22;2218;51.408;7.208;2023-04-01T14:54:42;19.60;45.30
4411;DHT22;2218;51.408;7.208;2023-04-01T14:57:13;19.60;45.30
4411;DHT22;2218;51.408;7.208;2023-04-01T14:59:48;19.60;45.30
4411;DHT22;2218;51.408;7.208;2023-04-01T15:02:31;19.60;45.40
4411;DHT22;2218;51.408;7.208;2023-04-01T15:05:15;19.60;45.30
4411;DHT22;2218;51.408;7.208;2023-04-01T15:08:15;19.60;45.40
4411;DHT22;2218;51.408;7.208;2023-04-01T15:11:03;19.60;45.40
4411;DHT22;2218;51.408;7.208;2023-04-01T15:14:23;19.60;45.30
4411;DHT22;2218;51.408;7.208;2023-04-01T15:17:18;19.60;45.40
4411;DHT22;2218;51.408;7.208;2023-04-01T15:20:10;19.60;45.40
4411;DHT22;2218;51.408;7.208;2023-04-01T15:23:01;19.60;45.40
4411;DHT22;2218;51.408;7.208;2023-04-01T15:25:49;19.60;45.40
4411;DHT22;2218;51.408;7.208;2023-04-01T15:28:33;19.50;45.30
4411;DHT22;2218;51.408;7.208;2023-04-01T15:31:11;19.50;45.80
4411;DHT22;2218;51.408;7.208;2023-04-01T15:33:51;19.50;45.40
4411;DHT22;2218;51.408;7.208;2023-04-01T15:36:40;19.50;45.40
4411;DHT22;2218;51.408;7.208;2023-04-01T15:39:14;19.50;45.30
4411;DHT22;2218;51.408;7.208;2023-04-01T15:41:58;19.50;45.40
4411;DHT22;2218;51.408;7.208;2023-04-01T15:44:56;19.50;45.40
4411;DHT22;2218;51.408;7.208;2023-04-01T15:47:39;19.50;45.30
4411;DHT22;2218;51.408;7.208;2023-04-01T15:50:43;19.50;45.40
4411;DHT22;2218;51.408;7.208;2023-04-01T15:53:31;19.50;45.40
4411;DHT22;2218;51.408;7.208;2023-04-01T15:56:26;19.50;45.40
4411;DHT22;2218;51.408;7.208;2023-04-01T15:59:14;19.50;45.40
4411;DHT22;2218;51.408;7.208;2023-04-01T16:01:55;19.50;45.40
4411;DHT22;2218;51.408;7.208;2023-04-01T16:04:45;19.50;45.40
4411;DHT22;2218;51.408;7.208;2023-04-01T16:10:44;19.50;45.40
4411;DHT22;2218;51.408;7.208;2023-04-01T16:13:28;19.50;45.50
4411;DHT22;2218;51.408;7.208;2023-04-01T16:16:12;19.50;45.50
4411;DHT22;2218;51.408;7.208;2023-04-01T16:19:04;19.50;45.40
4411;DHT22;2218;51.408;7.208;2023-04-01T16:21:50;19.50;45.50
4411;DHT22;2218;51.408;7.208;2023-04-01T16:24:24;19.50;45.40
4411;DHT22;2218;51.408;7.208;2023-04-01T16:27:05;19.50;45.50
4411;DHT22;2218;51.408;7.208;2023-04-01T16:29:45;19.50;45.50
4411;DHT22;2218;51.408;7.208;2023-04-01T16:32:27;19.50;45.50
4411;DHT22;2218;51.408;7.208;2023-04-01T16:35:28;19.50;45.50
4411;DHT22;2218;51.408;7.208;2023-04-01T16:38:08;19.50;45.50
4411;DHT22;2218;51.408;7.208;2023-04-01T16:40:47;19.50;45.50
4411;DHT22;2218;51.408;7.208;2023-04-01T16:43:29;19.50;45.50
4411;DHT22;2218;51.408;7.208;2023-04-01T16:46:18;19.50;45.50
4411;DHT22;2218;51.408;7.208;2023-04-01T16:48:59;19.50;45.50
4411;DHT22;2218;51.408;7.208;2023-04-01T16:51:40;19.50;45.50
4411;DHT22;2218;51.408;7.208;2023-04-01T16:54:18;19.50;45.60
4411;DHT22;2218;51.408;7.208;2023-04-01T16:56:56;19.50;45.60
4411;DHT22;2218;51.408;7.208;2023-04-01T16:59:36;19.50;45.50
4411;DHT22;2218;51.408;7.208;2023-04-01T17:02:09;19.50;45.50
4411;DHT22;2218;51.408;7.208;2023-04-01T17:04:44;19.50;45.60
4411;DHT22;2218;51.408;7.208;2023-04-01T17:07:23;19.50;45.50
4411;DHT22;2218;51.408;7.208;2023-04-01T17:10:05;19.50;45.60
4411;DHT22;2218;51.408;7.208;2023-04-01T17:13:12;19.50;45.60
4411;DHT22;2218;51.408;7.208;2023-04-01T17:16:01;19.50;45.60
4411;DHT22;2218;51.408;7.208;2023-04-01T17:18:45;19.50;45.60
4411;DHT22;2218;51.408;7.208;2023-04-01T17:21:23;19.50;45.60
4411;DHT22;2218;51.408;7.208;2023-04-01T17:24:02;19.40;45.60
4411;DHT22;2218;51.408;7.208;2023-04-01T17:26:47;19.40;45.50
4411;DHT22;2218;51.408;7.208;2023-04-01T17:29:24;19.50;45.60
4411;DHT22;2218;51.408;7.208;2023-04-01T17:32:05;19.40;45.50
4411;DHT22;2218;51.408;7.208;2023-04-01T17:34:45;19.40;45.60
4411;DHT22;2218;51.408;7.208;2023-04-01T17:37:41;19.50;45.60
4411;DHT22;2218;51.408;7.208;2023-04-01T17:40:35;19.50;45.60
4411;DHT22;2218;51.408;7.208;2023-04-01T17:43:15;19.40;45.50
4411;DHT22;2218;51.408;7.208;2023-04-01T17:45:53;19.40;45.60
4411;DHT22;2218;51.408;7.208;2023-04-01T17:48:41;19.40;45.60
4411;DHT22;2218;51.408;7.208;2023-04-01T17:51:22;19.40;45.60
4411;DHT22;2218;51.408;7.208;2023-04-01T17:54:01;19.40;45.60
4411;DHT22;2218;51.408;7.208;2023-04-01T17:56:45;19.40;45.60
4411;DHT22;2218;51.408;7.208;2023-04-01T17:59:26;19.40;45.60
4411;DHT22;2218;51.408;7.208;2023-04-01T18:02:11;19.40;45.60
4411;DHT22;2218;51.408;7.208;2023-04-01T18:05:16;19.40;45.50
4411;DHT22;2218;51.408;7.208;2023-04-01T18:08:12;19.40;45.60
4411;DHT22;2218;51.408;7.208;2023-04-01T18:10:57;19.40;45.60
4411;DHT22;2218;51.408;7.208;2023-04-01T18:13:50;19.40;45.60
4411;DHT22;2218;51.408;7.208;2023-04-01T18:16:47;19.40;45.60
4411;DHT22;2218;51.408;7.208;2023-04-01T18:19:29;19.40;45.60
4411;DHT22;2218;51.408;7.208;2023-04-01T18:22:19;19.40;45.60
4411;DHT22;2218;51.408;7.208;2023-04-01T18:24:56;19.40;45.60
4411;DHT22;2218;51.408;7.208;2023-04-01T18:27:31;19.40;45.60
4411;DHT22;2218;51.408;7.208;2023-04-01T18:30:13;19.40;45.60
4411;DHT22;2218;51.408;7.208;2023-04-01T18:32:49;19.40;45.70
4411;DHT22;2218;51.408;7.208;2023-04-01T18:35:29;19.40;45.70
4411;DHT22;2218;51.408;7.208;2023-04-01T18:38:06;19.40;45.70
4411;DHT22;2218;51.408;7.208;2023-04-01T18:40:43;19.40;45.60
4411;DHT22;2218;51.408;7.208;2023-04-01T18:43:22;19.40;45.70
4411;DHT22;2218;51.408;7.208;2023-04-01T18:46:08;19.40;45.70
4411;DHT22;2218;51.408;7.208;2023-04-01T18:48:50;19.40;45.70